createdAt,value
2018-12-22T00:01:39.958Z,97628.77
2018-12-22T00:04:08.546Z,97630.56
2018-12-22T00:06:37.047Z,97611.67
2018-12-22T00:09:06.550Z,97627.12
2018-12-22T00:11:35.210Z,97610.09
2018-12-22T00:14:03.673Z,97623.46
2018-12-22T00:16:32.221Z,97626.69
2018-12-22T00:19:00.678Z,97615.98
2018-12-22T00:21:29.598Z,97610.09
2018-12-22T00:23:58.070Z,97618.93
2018-12-22T00:26:26.603Z,97616.36
2018-12-22T00:28:55.065Z,97605.92
2018-12-22T00:31:24.067Z,97596.45
2018-12-22T00:33:53.257Z,97595.52
2018-12-22T00:36:21.846Z,97592.71
2018-12-22T00:38:50.354Z,97617.94
2018-12-22T00:41:18.931Z,97599.31
2018-12-22T00:43:47.518Z,97607.58
2018-12-22T00:46:16.754Z,97601.55
2018-12-22T00:48:45.197Z,97602.55
2018-12-22T00:51:13.670Z,97611.81
2018-12-22T00:53:42.120Z,97618.06
2018-12-22T00:56:10.648Z,97622.25
2018-12-22T00:58:39.386Z,97614.77
2018-12-22T01:01:07.877Z,97619.65
2018-12-22T01:03:36.412Z,97627.49
2018-12-22T01:06:04.999Z,97615.84
2018-12-22T01:08:33.590Z,97616.27
2018-12-22T01:11:02.119Z,97631.37
2018-12-22T01:13:30.575Z,97632.86
2018-12-22T01:15:59.072Z,97643.86
2018-12-22T01:18:27.550Z,97646.38
2018-12-22T01:20:56.049Z,97637.33
2018-12-22T01:23:25.437Z,97639.27
2018-12-22T01:25:53.938Z,97641.28
2018-12-22T01:28:22.447Z,97638.20
2018-12-22T01:30:50.920Z,97643.66
2018-12-22T01:33:19.491Z,97637.88
2018-12-22T01:35:48.090Z,97643.00
2018-12-22T01:38:16.873Z,97647.97
2018-12-22T01:40:46.229Z,97645.23
2018-12-22T01:43:14.713Z,97645.52
2018-12-22T01:45:43.193Z,97647.44
2018-12-22T01:48:11.634Z,97650.70
2018-12-22T01:50:40.131Z,97643.78
2018-12-22T01:53:08.602Z,97648.73
2018-12-22T01:55:37.080Z,97649.69
2018-12-22T01:58:05.994Z,97656.56
2018-12-22T02:00:34.502Z,97650.27
2018-12-22T02:03:03.549Z,97656.87
2018-12-22T02:05:32.021Z,97654.14
2018-12-22T02:08:00.534Z,97652.77
2018-12-22T02:10:29.006Z,97644.65
2018-12-22T02:12:57.475Z,97653.20
2018-12-22T02:15:26.006Z,97651.89
2018-12-22T02:17:54.470Z,97644.37
2018-12-22T02:20:22.918Z,97641.64
2018-12-22T02:22:51.512Z,97648.73
2018-12-22T02:25:20.006Z,97643.00
2018-12-22T02:27:48.546Z,97645.45
2018-12-22T02:30:17.163Z,97644.58
2018-12-22T02:32:45.749Z,97633.09
2018-12-22T02:35:14.353Z,97625.76
2018-12-22T02:37:42.886Z,97618.06
2018-12-22T02:40:11.400Z,97613.19
2018-12-22T02:42:39.855Z,97618.72
2018-12-22T02:45:08.401Z,97602.41
2018-12-22T02:47:36.971Z,97602.00
2018-12-22T02:50:06.248Z,97612.27
2018-12-22T02:52:35.136Z,97611.69
2018-12-22T02:55:03.803Z,97606.52
2018-12-22T02:57:32.272Z,97596.39
2018-12-22T03:00:00.814Z,97605.44
2018-12-22T03:02:30.220Z,97590.22
2018-12-22T03:04:58.716Z,97601.33
2018-12-22T03:07:27.171Z,97603.21
2018-12-22T03:09:56.164Z,97599.48
2018-12-22T03:12:24.689Z,97601.47
2018-12-22T03:14:53.174Z,97600.33
2018-12-22T03:17:21.639Z,97607.23
2018-12-22T03:19:50.163Z,97610.09
2018-12-22T03:22:18.762Z,97598.25
2018-12-22T03:24:47.243Z,97587.42
2018-12-22T03:27:15.788Z,97575.15
2018-12-22T03:29:44.269Z,97585.97
2018-12-22T03:32:12.799Z,97564.94
2018-12-22T03:34:41.505Z,97571.39
2018-12-22T03:37:09.993Z,97575.98
2018-12-22T03:39:38.473Z,97579.94
2018-12-22T03:42:08.004Z,97580.30
2018-12-22T03:44:36.639Z,97583.45
2018-12-22T03:47:05.206Z,97575.92
2018-12-22T03:49:34.193Z,97559.69
2018-12-22T03:52:02.657Z,97572.55
2018-12-22T03:54:31.195Z,97559.91
2018-12-22T03:56:59.802Z,97549.56
2018-12-22T03:59:28.584Z,97546.55
2018-12-22T04:01:57.565Z,97531.05
2018-12-22T04:04:26.197Z,97544.25
2018-12-22T04:06:55.059Z,97542.36
2018-12-22T04:09:23.555Z,97539.63
2018-12-22T04:11:52.010Z,97517.25
2018-12-22T04:14:20.493Z,97518.91
2018-12-22T04:16:48.985Z,97513.52
2018-12-22T04:19:17.453Z,97526.73
2018-12-22T04:21:45.922Z,97524.08
2018-12-22T04:24:14.474Z,97529.96
2018-12-22T04:26:42.934Z,97528.17
2018-12-22T04:29:11.922Z,97530.46
2018-12-22T04:31:40.423Z,97534.84
2018-12-22T04:34:08.912Z,97540.83
2018-12-22T04:36:37.369Z,97542.09
2018-12-22T04:39:08.378Z,97536.77
2018-12-22T04:41:36.838Z,97545.23
2018-12-22T04:44:05.329Z,97543.22
2018-12-22T04:46:35.335Z,97540.70
2018-12-22T04:49:04.456Z,97548.55
2018-12-22T04:51:33.029Z,97538.50
2018-12-22T04:54:01.880Z,97541.95
2018-12-22T04:56:30.336Z,97549.97
2018-12-22T04:58:59.182Z,97548.26
2018-12-22T05:01:27.722Z,97556.44
2018-12-22T05:03:56.193Z,97550.11
2018-12-22T05:06:24.662Z,97558.08
2018-12-22T05:08:53.143Z,97546.08
2018-12-22T05:11:22.571Z,97552.54
2018-12-22T05:13:51.051Z,97548.06
2018-12-22T05:16:19.628Z,97536.09
2018-12-22T05:18:48.131Z,97553.08
2018-12-22T05:21:17.004Z,97554.22
2018-12-22T05:23:45.519Z,97541.73
2018-12-22T05:26:14.434Z,97540.67
2018-12-22T05:28:42.995Z,97537.81
2018-12-22T05:31:11.498Z,97545.34
2018-12-22T05:33:40.063Z,97555.31
2018-12-22T05:36:08.641Z,97552.67
2018-12-22T05:38:40.118Z,97546.92
2018-12-22T05:41:08.570Z,97558.39
2018-12-22T05:43:37.094Z,97562.17
2018-12-22T05:46:05.807Z,97570.36
2018-12-22T05:48:34.982Z,97568.06
2018-12-22T05:51:03.443Z,97573.30
2018-12-22T05:53:31.945Z,97583.62
2018-12-22T05:56:00.525Z,97576.58
2018-12-22T05:58:28.991Z,97585.31
2018-12-22T06:00:57.452Z,97585.31
2018-12-22T06:03:25.950Z,97587.39
2018-12-22T06:05:54.559Z,97582.95
2018-12-22T06:08:23.077Z,97581.81
2018-12-22T06:10:52.038Z,97582.47
2018-12-22T06:13:20.525Z,97592.02
2018-12-22T06:15:49.153Z,97586.34
2018-12-22T06:18:17.637Z,97587.13
2018-12-22T06:20:46.251Z,97562.95
2018-12-22T06:23:14.818Z,97565.02
2018-12-22T06:25:44.097Z,97577.06
2018-12-22T06:28:12.566Z,97586.16
2018-12-22T06:30:41.062Z,97583.00
2018-12-22T06:33:09.569Z,97586.16
2018-12-22T06:35:38.955Z,97585.46
2018-12-22T06:38:07.419Z,97582.73
2018-12-22T06:40:35.885Z,97580.50
2018-12-22T06:43:04.357Z,97579.13
2018-12-22T06:45:32.950Z,97592.41
2018-12-22T06:48:02.023Z,97589.81
2018-12-22T06:50:31.120Z,97583.88
2018-12-22T06:52:59.997Z,97580.94
2018-12-22T06:55:28.438Z,97585.02
2018-12-22T06:57:56.892Z,97588.54
2018-12-22T07:00:25.401Z,97590.34
2018-12-22T07:02:53.910Z,97594.78
2018-12-22T07:05:22.361Z,97580.36
2018-12-22T07:07:50.840Z,97593.86
2018-12-22T07:10:19.422Z,97593.33
2018-12-22T07:12:47.892Z,97594.42
2018-12-22T07:15:16.582Z,97587.75
2018-12-22T07:17:45.118Z,97589.68
2018-12-22T07:20:13.613Z,97611.57
2018-12-22T07:22:42.693Z,97607.27
2018-12-22T07:25:11.170Z,97608.84
2018-12-22T07:27:39.632Z,97611.57
2018-12-22T07:30:09.955Z,97601.11
2018-12-22T07:32:38.451Z,97624.50
2018-12-22T07:35:07.069Z,97621.33
2018-12-22T07:37:36.101Z,97612.10
2018-12-22T07:40:05.097Z,97628.36
2018-12-22T07:42:33.571Z,97634.25
2018-12-22T07:45:02.122Z,97634.25
2018-12-22T07:47:31.624Z,97627.44
2018-12-22T07:50:00.082Z,97645.63
2018-12-22T07:52:28.854Z,97647.00
2018-12-22T07:54:57.314Z,97656.50
2018-12-22T07:57:25.800Z,97664.39
2018-12-22T07:59:54.730Z,97662.28
2018-12-22T08:02:23.377Z,97654.77
2018-12-22T08:04:52.445Z,97654.70
2018-12-22T08:07:21.222Z,97659.80
2018-12-22T08:09:51.135Z,97672.86
2018-12-22T08:12:19.952Z,97671.45
2018-12-22T08:14:48.448Z,97665.07
2018-12-22T08:17:16.907Z,97667.31
2018-12-22T08:19:46.612Z,97675.72
2018-12-22T08:22:15.829Z,97679.73
2018-12-22T08:24:44.329Z,97674.72
2018-12-22T08:27:13.342Z,97679.47
2018-12-22T08:29:41.859Z,97700.05
2018-12-22T08:32:10.339Z,97700.58
2018-12-22T08:34:39.288Z,97715.80
2018-12-22T08:37:08.217Z,97717.45
2018-12-22T08:39:36.886Z,97709.34
2018-12-22T08:42:05.883Z,97713.66
2018-12-22T08:44:34.421Z,97712.52
2018-12-22T08:47:02.941Z,97713.87
2018-12-22T08:49:31.582Z,97734.30
2018-12-22T08:52:00.630Z,97740.22
2018-12-22T08:54:29.106Z,97742.95
2018-12-22T08:56:57.655Z,97738.56
2018-12-22T08:59:26.212Z,97738.56
2018-12-22T09:01:54.791Z,97740.44
2018-12-22T09:04:23.357Z,97751.77
2018-12-22T09:06:51.871Z,97752.20
2018-12-22T09:09:20.888Z,97761.27
2018-12-22T09:11:49.386Z,97767.34
2018-12-22T09:14:17.858Z,97766.77
2018-12-22T09:16:46.466Z,97772.77
2018-12-22T09:19:15.746Z,97771.03
2018-12-22T09:21:44.258Z,97776.98
2018-12-22T09:24:13.612Z,97789.80
2018-12-22T09:26:42.162Z,97786.48
2018-12-22T09:29:10.712Z,97786.93
2018-12-22T09:31:39.342Z,97793.14
2018-12-22T09:34:13.320Z,97788.60
2018-12-22T09:36:39.378Z,97786.09
2018-12-22T09:39:08.961Z,97794.89
2018-12-22T09:41:37.582Z,97785.46
2018-12-22T09:44:06.277Z,97791.59
2018-12-22T09:46:35.624Z,97784.59
2018-12-22T09:49:04.155Z,97795.28
2018-12-22T09:51:32.668Z,97785.52
2018-12-22T09:54:01.126Z,97803.57
2018-12-22T09:56:29.631Z,97814.52
2018-12-22T09:58:58.202Z,97807.92
2018-12-22T10:01:26.690Z,97827.77
2018-12-22T10:03:55.214Z,97819.80
2018-12-22T10:06:23.878Z,97829.98
2018-12-22T10:08:52.399Z,97822.98
2018-12-22T10:11:20.923Z,97835.41
2018-12-22T10:13:49.428Z,97831.55
2018-12-22T10:16:19.297Z,97834.14
2018-12-22T10:18:47.829Z,97828.02
2018-12-22T10:21:16.309Z,97826.53
2018-12-22T10:23:45.063Z,97826.50
2018-12-22T10:26:13.550Z,97836.97
2018-12-22T10:28:43.712Z,97838.94
2018-12-22T10:31:17.944Z,97844.95
2018-12-22T10:33:45.167Z,97837.77
2018-12-22T10:36:16.418Z,97829.16
2018-12-22T10:38:45.435Z,97826.83
2018-12-22T10:41:14.210Z,97830.13
2018-12-22T10:43:42.731Z,97845.91
2018-12-22T10:46:11.199Z,97854.39
2018-12-22T10:48:40.006Z,97845.00
2018-12-22T10:51:08.497Z,97832.19
2018-12-22T10:53:37.072Z,97845.99
2018-12-22T10:56:12.849Z,97857.90
2018-12-22T10:58:46.485Z,97852.82
2018-12-22T11:01:29.249Z,97861.70
2018-12-22T11:04:02.791Z,97835.50
2018-12-22T11:06:37.282Z,97837.48
2018-12-22T11:09:14.937Z,97842.98
2018-12-22T11:11:45.428Z,97845.67
2018-12-22T11:14:15.887Z,97851.06
2018-12-22T11:16:45.854Z,97854.66
2018-12-22T11:19:16.273Z,97845.81
2018-12-22T11:21:46.584Z,97863.25
2018-12-22T11:24:16.571Z,97869.25
2018-12-22T11:26:46.963Z,97875.64
2018-12-22T11:29:17.678Z,97872.42
2018-12-22T11:31:48.129Z,97874.27
2018-12-22T11:34:16.867Z,97870.23
2018-12-22T11:36:45.600Z,97891.40
2018-12-22T11:39:16.910Z,97896.17
2018-12-22T11:41:45.583Z,97891.09
2018-12-22T11:44:15.714Z,97901.90
2018-12-22T11:46:45.694Z,97911.23
2018-12-22T11:49:25.381Z,97916.25
2018-12-22T11:51:55.758Z,97894.19
2018-12-22T11:54:25.895Z,97905.45
2018-12-22T11:56:54.662Z,97913.22
2018-12-22T11:59:23.837Z,97883.31
2018-12-22T12:01:53.114Z,97911.03
2018-12-22T12:04:22.733Z,97903.68
2018-12-22T12:06:52.773Z,97915.06
2018-12-22T12:09:22.487Z,97912.44
2018-12-22T12:11:52.109Z,97900.16
2018-12-22T12:14:21.873Z,97907.45
2018-12-22T12:17:05.308Z,97909.16
2018-12-22T12:19:36.271Z,97904.09
2018-12-22T12:22:06.176Z,97924.18
2018-12-22T12:24:34.955Z,97918.47
2018-12-22T12:27:05.696Z,97905.78
2018-12-22T12:29:36.143Z,97918.77
2018-12-22T12:32:05.991Z,97919.07
2018-12-22T12:34:34.630Z,97914.64
2018-12-22T12:37:05.370Z,97915.64
2018-12-22T12:39:34.854Z,97941.66
2018-12-22T12:42:04.323Z,97974.21
2018-12-22T12:44:34.349Z,98002.09
2018-12-22T12:47:04.049Z,98003.14
2018-12-22T12:49:33.011Z,98010.06
2018-12-22T12:52:03.755Z,98001.77
2018-12-22T12:54:32.519Z,98004.52
2018-12-22T12:57:03.096Z,98006.88
2018-12-22T12:59:34.075Z,98014.23
2018-12-22T13:02:04.532Z,98005.41
2018-12-22T13:04:34.520Z,98019.47
2018-12-22T13:07:04.320Z,98024.92
2018-12-22T13:09:33.097Z,98029.02
2018-12-22T13:12:08.168Z,98041.84
2018-12-22T13:14:37.794Z,98043.77
2018-12-22T13:17:07.135Z,98043.66
2018-12-22T13:19:38.736Z,98041.27
2018-12-22T13:22:08.676Z,98052.39
2018-12-22T13:24:38.946Z,98055.81
2018-12-22T13:27:08.451Z,98051.92
2018-12-22T13:29:37.755Z,98055.58
2018-12-22T13:32:09.844Z,98059.44
2018-12-22T13:34:37.434Z,98055.35
2018-12-22T13:37:06.991Z,98061.45
2018-12-22T13:39:36.063Z,98056.34
2018-12-22T13:42:04.795Z,98062.59
2018-12-22T13:44:33.267Z,98075.77
2018-12-22T13:47:01.766Z,98083.92
2018-12-22T13:49:30.988Z,98083.24
2018-12-22T13:52:00.412Z,98090.94
2018-12-22T13:54:28.898Z,98097.98
2018-12-22T13:56:57.455Z,98098.62
2018-12-22T13:59:26.242Z,98106.24
2018-12-22T14:02:01.419Z,98102.30
2018-12-22T14:04:31.844Z,98101.39
2018-12-22T14:07:00.337Z,98108.40
2018-12-22T14:09:29.691Z,98113.06
2018-12-22T14:11:59.306Z,98104.76
2018-12-22T14:14:32.795Z,98111.58
2018-12-22T14:17:37.932Z,98113.43
2018-12-22T14:20:10.804Z,98122.07
2018-12-22T14:22:40.039Z,98125.94
2018-12-22T14:25:13.297Z,98125.02
2018-12-22T14:27:41.937Z,98131.84
2018-12-22T14:30:12.774Z,98119.11
2018-12-22T14:32:41.325Z,98132.55
2018-12-22T14:35:13.766Z,98138.00
2018-12-22T14:37:42.222Z,98135.59
2018-12-22T14:40:11.855Z,98140.47
2018-12-22T14:42:40.460Z,98137.63
2018-12-22T14:45:10.875Z,98143.88
2018-12-22T14:47:39.350Z,98144.59
2018-12-22T14:50:10.079Z,98154.78
2018-12-22T14:52:38.753Z,98156.37
2018-12-22T14:55:08.287Z,98156.83
2018-12-22T14:57:42.642Z,98163.66
2018-12-22T15:00:12.669Z,98167.54
2018-12-22T15:02:41.231Z,98174.70
2018-12-22T15:05:09.885Z,98169.34
2018-12-22T15:07:39.510Z,98180.93
2018-12-22T15:10:08.450Z,98181.85
2018-12-22T15:12:37.405Z,98192.52
2018-12-22T15:15:07.321Z,98178.42
2018-12-22T15:17:35.946Z,98197.27
2018-12-22T15:20:06.298Z,98206.81
2018-12-22T15:22:34.739Z,98212.49
2018-12-22T15:25:04.086Z,98218.28
2018-12-22T15:27:33.061Z,98219.18
2018-12-22T15:30:02.239Z,98217.73
2018-12-22T15:32:30.723Z,98226.57
2018-12-22T15:34:59.291Z,98217.70
2018-12-22T15:37:27.789Z,98228.34
2018-12-22T15:39:56.310Z,98225.86
2018-12-22T15:42:24.753Z,98227.89
2018-12-22T15:44:53.322Z,98222.67
2018-12-22T15:47:21.882Z,98226.77
2018-12-22T15:49:50.336Z,98232.18
2018-12-22T15:52:19.486Z,98237.37
2018-12-22T15:54:48.062Z,98230.33
2018-12-22T15:57:16.646Z,98231.59
2018-12-22T15:59:45.940Z,98233.52
2018-12-22T16:02:14.521Z,98231.22
2018-12-22T16:04:43.689Z,98230.30
2018-12-22T16:07:12.279Z,98237.33
2018-12-22T16:09:41.178Z,98242.31
2018-12-22T16:12:09.673Z,98235.41
2018-12-22T16:14:38.348Z,98241.62
2018-12-22T16:17:06.890Z,98240.48
2018-12-22T16:19:35.353Z,98248.42
2018-12-22T16:22:03.842Z,98255.69
2018-12-22T16:24:32.314Z,98248.94
2018-12-22T16:27:00.837Z,98254.30
2018-12-22T16:29:33.374Z,98251.44
2018-12-22T16:32:02.302Z,98255.84
2018-12-22T16:34:30.826Z,98259.03
2018-12-22T16:36:59.374Z,98254.02
2018-12-22T16:39:28.090Z,98258.34
2018-12-22T16:41:57.310Z,98269.21
2018-12-22T16:44:25.801Z,98265.83
2018-12-22T16:46:55.055Z,98279.20
2018-12-22T16:49:23.674Z,98279.87
2018-12-22T16:51:53.507Z,98280.66
2018-12-22T16:54:26.671Z,98283.02
2018-12-22T16:56:55.760Z,98283.29
2018-12-22T16:59:25.707Z,98295.64
2018-12-22T17:02:09.259Z,98289.16
2018-12-22T17:04:39.283Z,98290.94
2018-12-22T17:07:09.478Z,98306.62
2018-12-22T17:09:38.373Z,98295.83
2018-12-22T17:12:07.130Z,98287.75
2018-12-22T17:14:38.348Z,98295.21
2018-12-22T17:17:08.483Z,98299.53
2018-12-22T17:19:37.050Z,98301.22
2018-12-22T17:22:13.613Z,98303.38
2018-12-22T17:24:47.902Z,98311.07
2018-12-22T17:27:16.359Z,98316.08
2018-12-22T17:29:45.555Z,98317.88
2018-12-22T17:32:14.117Z,98319.69
2018-12-22T17:34:43.186Z,98322.88
2018-12-22T17:37:12.718Z,98319.83
2018-12-22T17:39:41.289Z,98322.20
2018-12-22T17:42:09.778Z,98324.59
2018-12-22T17:44:38.234Z,98334.49
2018-12-22T17:47:06.985Z,98323.61
2018-12-22T17:49:35.898Z,98328.81
2018-12-22T17:52:05.050Z,98330.31
2018-12-22T17:54:33.539Z,98335.15
2018-12-22T17:57:02.006Z,98345.38
2018-12-22T17:59:30.510Z,98338.99
2018-12-22T18:01:58.991Z,98347.72
2018-12-22T18:04:27.725Z,98348.28
2018-12-22T18:06:56.692Z,98351.48
2018-12-22T18:09:25.216Z,98352.60
2018-12-22T18:11:53.742Z,98336.27
2018-12-22T18:14:22.594Z,98357.13
2018-12-22T18:16:51.066Z,98356.92
2018-12-22T18:19:19.582Z,98364.35
2018-12-22T18:21:48.134Z,98372.52
2018-12-22T18:24:16.925Z,98374.53
2018-12-22T18:26:46.487Z,98380.20
2018-12-22T18:29:15.491Z,98386.63
2018-12-22T18:31:44.006Z,98384.70
2018-12-22T18:34:12.602Z,98391.92
2018-12-22T18:36:41.126Z,98393.52
2018-12-22T18:39:09.708Z,98394.31
2018-12-22T18:41:39.259Z,98395.11
2018-12-22T18:44:07.722Z,98395.11
2018-12-22T18:46:36.174Z,98387.84
2018-12-22T18:49:04.657Z,98391.13
2018-12-22T18:51:33.259Z,98391.50
2018-12-22T18:54:01.780Z,98394.64
2018-12-22T18:56:30.377Z,98395.11
2018-12-22T18:59:00.682Z,98392.87
2018-12-22T19:01:29.240Z,98395.35
2018-12-22T19:03:57.765Z,98393.98
2018-12-22T19:06:27.338Z,98398.95
2018-12-22T19:08:58.994Z,98408.24
2018-12-22T19:11:27.550Z,98411.27
2018-12-22T19:13:56.803Z,98411.29
2018-12-22T19:16:25.876Z,98424.74
2018-12-22T19:18:54.585Z,98421.88
2018-12-22T19:21:24.245Z,98432.59
2018-12-22T19:23:52.717Z,98440.05
2018-12-22T19:26:21.226Z,98436.16
2018-12-22T19:28:50.457Z,98431.30
2018-12-22T19:31:19.095Z,98439.28
2018-12-22T19:33:53.449Z,98443.69
2018-12-22T19:36:18.624Z,98452.24
2018-12-22T19:38:47.492Z,98458.56
2018-12-22T19:41:16.064Z,98453.05
2018-12-22T19:43:44.560Z,98450.33
2018-12-22T19:46:13.656Z,98461.69
2018-12-22T19:48:42.305Z,98460.97
2018-12-22T19:51:11.728Z,98467.13
2018-12-22T19:53:40.790Z,98464.17
2018-12-22T19:56:10.305Z,98467.61
2018-12-22T19:58:40.047Z,98464.65
2018-12-22T20:01:09.012Z,98472.64
2018-12-22T20:03:38.396Z,98475.45
2018-12-22T20:06:06.930Z,98471.73
2018-12-22T20:08:36.021Z,98472.64
2018-12-22T20:11:04.626Z,98477.61
2018-12-22T20:13:33.599Z,98487.61
2018-12-22T20:16:08.925Z,98483.09
2018-12-22T20:18:32.835Z,98472.77
2018-12-22T20:21:01.328Z,98480.38
2018-12-22T20:23:31.399Z,98471.80
2018-12-22T20:26:00.018Z,98480.92
2018-12-22T20:28:28.619Z,98479.09
2018-12-22T20:30:57.107Z,98474.13
2018-12-22T20:33:25.590Z,98478.92
2018-12-22T20:35:54.495Z,98473.23
2018-12-22T20:38:23.547Z,98479.16
2018-12-22T20:40:52.058Z,98478.84
2018-12-22T20:43:21.340Z,98478.44
2018-12-22T20:45:49.844Z,98479.97
2018-12-22T20:48:18.627Z,98473.23
2018-12-22T20:50:47.072Z,98476.13
2018-12-22T20:53:15.565Z,98476.30
2018-12-22T20:55:44.823Z,98469.08
2018-12-22T20:58:14.469Z,98474.52
2018-12-22T21:00:43.313Z,98487.17
2018-12-22T21:03:11.941Z,98484.45
2018-12-22T21:05:46.129Z,98475.64
2018-12-22T21:08:16.746Z,98477.72
2018-12-22T21:10:46.404Z,98480.84
2018-12-22T21:13:15.640Z,98488.27
2018-12-22T21:15:44.199Z,98490.59
2018-12-22T21:18:13.345Z,98496.03
2018-12-22T21:20:42.767Z,98489.86
2018-12-22T21:23:11.512Z,98492.27
2018-12-22T21:25:40.726Z,98493.79
2018-12-22T21:28:09.999Z,98492.27
2018-12-22T21:30:38.995Z,98499.95
2018-12-22T21:33:07.769Z,98506.98
2018-12-22T21:35:36.359Z,98509.06
2018-12-22T21:38:04.924Z,98506.42
2018-12-22T21:40:34.272Z,98514.51
2018-12-22T21:43:03.169Z,98509.55
2018-12-22T21:45:31.817Z,98510.91
2018-12-22T21:48:00.794Z,98512.91
2018-12-22T21:50:29.550Z,98516.75
2018-12-22T21:52:58.616Z,98520.28
2018-12-22T21:55:27.506Z,98526.52
2018-12-22T21:57:56.138Z,98516.44
2018-12-22T22:00:25.031Z,98517.56
2018-12-22T22:02:53.663Z,98534.12
2018-12-22T22:05:22.222Z,98535.73
2018-12-22T22:07:51.246Z,98535.97
2018-12-22T22:10:20.202Z,98533.97
2018-12-22T22:12:49.336Z,98535.89
2018-12-22T22:15:17.994Z,98533.17
2018-12-22T22:17:46.492Z,98535.17
2018-12-22T22:20:14.962Z,98535.02
2018-12-22T22:22:43.461Z,98535.33
2018-12-22T22:25:12.459Z,98534.22
2018-12-22T22:27:41.345Z,98536.94
2018-12-22T22:30:09.935Z,98543.98
2018-12-22T22:32:38.930Z,98552.45
2018-12-22T22:35:07.568Z,98540.30
2018-12-22T22:37:36.036Z,98548.22
2018-12-22T22:40:05.439Z,98549.98
2018-12-22T22:42:34.315Z,98551.98
2018-12-22T22:45:03.529Z,98557.84
2018-12-22T22:47:33.195Z,98559.05
2018-12-22T22:50:01.841Z,98563.05
2018-12-22T22:52:30.425Z,98572.96
2018-12-22T22:54:59.054Z,98561.45
2018-12-22T22:57:27.990Z,98562.86
2018-12-22T22:59:57.468Z,98561.58
2018-12-22T23:02:26.121Z,98567.90
2018-12-22T23:04:55.120Z,98568.63
2018-12-22T23:07:24.330Z,98573.42
2018-12-22T23:09:52.776Z,98573.91
2018-12-22T23:12:21.285Z,98580.95
2018-12-22T23:14:49.761Z,98578.39
2018-12-22T23:17:18.714Z,98581.74
2018-12-22T23:19:47.342Z,98588.01
2018-12-22T23:22:16.197Z,98587.77
2018-12-22T23:24:44.658Z,98581.52
2018-12-22T23:27:13.226Z,98586.95
2018-12-22T23:29:41.673Z,98591.52
2018-12-22T23:32:10.210Z,98584.81
2018-12-22T23:34:38.799Z,98573.59
2018-12-22T23:37:07.379Z,98581.70
2018-12-22T23:39:35.900Z,98578.41
2018-12-22T23:42:04.506Z,98578.48
2018-12-22T23:44:33.026Z,98579.67
2018-12-22T23:47:01.549Z,98582.81
2018-12-22T23:49:30.003Z,98580.80
2018-12-22T23:51:58.870Z,98578.98
2018-12-22T23:54:27.321Z,98584.63
2018-12-22T23:56:55.886Z,98589.43
2018-12-22T23:59:24.675Z,98591.77
